sensor_id;sensor_type;location;lat;lon;timestamp;pressure;altitude;pressure_sealevel;temperature;humidity
57827;BME280;43656;57.746;11.780;2023-04-10T00:01:15;102539.72;;;7.48;55.66
57827;BME280;43656;57.746;11.780;2023-04-10T00:03:41;102521.63;;;7.30;56.55
57827;BME280;43656;57.746;11.780;2023-04-10T00:06:06;102538.72;;;7.39;56.43
57827;BME280;43656;57.746;11.780;2023-04-10T00:08:32;102536.59;;;7.43;56.40
57827;BME280;43656;57.746;11.780;2023-04-10T00:10:57;102543.53;;;7.45;56.35
57827;BME280;43656;57.746;11.780;2023-04-10T00:13:23;102535.63;;;7.44;56.37
57827;BME280;43656;57.746;11.780;2023-04-10T00:15:48;102543.25;;;7.48;56.27
57827;BME280;43656;57.746;11.780;2023-04-10T00:18:15;102540.59;;;7.48;56.31
57827;BME280;43656;57.746;11.780;2023-04-10T00:20:40;102547.63;;;7.49;56.30
57827;BME280;43656;57.746;11.780;2023-04-10T00:23:06;102525.41;;;7.28;56.49
57827;BME280;43656;57.746;11.780;2023-04-10T00:25:31;102538.88;;;7.47;56.67
57827;BME280;43656;57.746;11.780;2023-04-10T00:27:56;102547.19;;;7.54;56.09
57827;BME280;43656;57.746;11.780;2023-04-10T00:30:22;102550.16;;;7.51;55.94
57827;BME280;43656;57.746;11.780;2023-04-10T00:32:47;102553.56;;;7.53;56.09
57827;BME280;43656;57.746;11.780;2023-04-10T00:35:13;102540.69;;;7.47;56.28
57827;BME280;43656;57.746;11.780;2023-04-10T00:37:38;102554.50;;;7.42;56.58
57827;BME280;43656;57.746;11.780;2023-04-10T00:40:04;102557.56;;;7.38;56.35
57827;BME280;43656;57.746;11.780;2023-04-10T00:42:31;102545.19;;;7.37;56.77
57827;BME280;43656;57.746;11.780;2023-04-10T00:44:57;102556.72;;;7.37;56.99
57827;BME280;43656;57.746;11.780;2023-04-10T00:47:23;102556.47;;;7.40;56.86
57827;BME280;43656;57.746;11.780;2023-04-10T00:49:49;102559.97;;;7.41;56.85
57827;BME280;43656;57.746;11.780;2023-04-10T00:52:15;102554.94;;;7.47;56.35
57827;BME280;43656;57.746;11.780;2023-04-10T00:54:41;102558.50;;;7.58;56.92
57827;BME280;43656;57.746;11.780;2023-04-10T00:57:06;102551.59;;;7.65;56.69
57827;BME280;43656;57.746;11.780;2023-04-10T00:59:32;102528.34;;;7.56;56.58
57827;BME280;43656;57.746;11.780;2023-04-10T01:01:58;102550.50;;;7.77;56.08
57827;BME280;43656;57.746;11.780;2023-04-10T01:04:24;102552.38;;;7.86;55.98
57827;BME280;43656;57.746;11.780;2023-04-10T01:07:03;102555.50;;;7.91;55.89
57827;BME280;43656;57.746;11.780;2023-04-10T01:15:03;102548.44;;;8.19;55.70
57827;BME280;43656;57.746;11.780;2023-04-10T01:18:04;102560.59;;;8.33;56.04
57827;BME280;43656;57.746;11.780;2023-04-10T01:20:37;102552.41;;;8.35;55.71
57827;BME280;43656;57.746;11.780;2023-04-10T01:26:03;102559.50;;;8.45;55.95
57827;BME280;43656;57.746;11.780;2023-04-10T01:31:21;102564.41;;;8.60;56.04
57827;BME280;43656;57.746;11.780;2023-04-10T01:33:53;102554.53;;;8.60;55.90
57827;BME280;43656;57.746;11.780;2023-04-10T01:36:30;102563.69;;;8.67;55.64
57827;BME280;43656;57.746;11.780;2023-04-10T01:38:59;102567.81;;;8.72;55.87
57827;BME280;43656;57.746;11.780;2023-04-10T01:41:25;102530.94;;;8.64;55.73
57827;BME280;43656;57.746;11.780;2023-04-10T01:43:52;102542.66;;;8.73;55.81
57827;BME280;43656;57.746;11.780;2023-04-10T01:46:20;102555.59;;;8.87;55.72
57827;BME280;43656;57.746;11.780;2023-04-10T01:48:47;102559.44;;;8.84;56.62
57827;BME280;43656;57.746;11.780;2023-04-10T01:51:14;102555.75;;;8.95;56.89
57827;BME280;43656;57.746;11.780;2023-04-10T01:53:42;102548.41;;;8.87;57.14
57827;BME280;43656;57.746;11.780;2023-04-10T01:56:08;102547.25;;;8.90;57.24
57827;BME280;43656;57.746;11.780;2023-04-10T01:58:34;102522.16;;;8.81;57.40
57827;BME280;43656;57.746;11.780;2023-04-10T02:00:59;102537.63;;;8.97;57.63
57827;BME280;43656;57.746;11.780;2023-04-10T02:03:25;102545.81;;;9.05;58.03
57827;BME280;43656;57.746;11.780;2023-04-10T02:08:25;102547.78;;;9.03;58.50
57827;BME280;43656;57.746;11.780;2023-04-10T02:11:02;102548.78;;;9.02;59.80
57827;BME280;43656;57.746;11.780;2023-04-10T02:13:29;102548.63;;;9.04;59.78
57827;BME280;43656;57.746;11.780;2023-04-10T02:15:58;102554.00;;;9.04;60.41
57827;BME280;43656;57.746;11.780;2023-04-10T02:18:25;102545.22;;;9.11;60.18
57827;BME280;43656;57.746;11.780;2023-04-10T02:20:52;102540.25;;;9.16;60.13
57827;BME280;43656;57.746;11.780;2023-04-10T02:23:19;102537.72;;;9.15;60.15
57827;BME280;43656;57.746;11.780;2023-04-10T02:25:45;102538.66;;;9.24;60.68
57827;BME280;43656;57.746;11.780;2023-04-10T02:28:10;102527.53;;;9.18;60.24
57827;BME280;43656;57.746;11.780;2023-04-10T02:30:36;102543.47;;;9.20;61.09
57827;BME280;43656;57.746;11.780;2023-04-10T02:33:03;102544.50;;;9.19;61.56
57827;BME280;43656;57.746;11.780;2023-04-10T02:35:28;102535.88;;;9.15;61.50
57827;BME280;43656;57.746;11.780;2023-04-10T02:37:54;102526.28;;;9.13;61.96
57827;BME280;43656;57.746;11.780;2023-04-10T02:40:20;102516.28;;;9.05;61.97
57827;BME280;43656;57.746;11.780;2023-04-10T02:42:45;102531.34;;;9.16;61.74
57827;BME280;43656;57.746;11.780;2023-04-10T02:45:11;102524.59;;;9.12;62.31
57827;BME280;43656;57.746;11.780;2023-04-10T02:47:37;102462.09;;;8.82;61.45
57827;BME280;43656;57.746;11.780;2023-04-10T02:50:02;102518.94;;;9.15;61.79
57827;BME280;43656;57.746;11.780;2023-04-10T02:52:28;102520.91;;;9.13;61.95
57827;BME280;43656;57.746;11.780;2023-04-10T02:54:53;102512.84;;;9.13;61.76
57827;BME280;43656;57.746;11.780;2023-04-10T02:57:18;102517.66;;;9.09;62.59
57827;BME280;43656;57.746;11.780;2023-04-10T02:59:44;102516.13;;;9.07;62.18
57827;BME280;43656;57.746;11.780;2023-04-10T03:02:09;102507.22;;;9.06;62.88
57827;BME280;43656;57.746;11.780;2023-04-10T03:04:35;102492.16;;;8.96;62.59
57827;BME280;43656;57.746;11.780;2023-04-10T03:07:01;102514.31;;;9.07;62.45
57827;BME280;43656;57.746;11.780;2023-04-10T03:09:26;102512.19;;;9.01;62.23
57827;BME280;43656;57.746;11.780;2023-04-10T03:11:51;102507.09;;;9.08;61.73
57827;BME280;43656;57.746;11.780;2023-04-10T03:14:17;102515.34;;;8.87;62.87
57827;BME280;43656;57.746;11.780;2023-04-10T03:16:43;102513.19;;;8.90;62.35
57827;BME280;43656;57.746;11.780;2023-04-10T03:19:08;102510.53;;;8.90;62.38
57827;BME280;43656;57.746;11.780;2023-04-10T03:21:33;102510.22;;;8.93;62.22
57827;BME280;43656;57.746;11.780;2023-04-10T03:23:59;102510.94;;;8.96;61.48
57827;BME280;43656;57.746;11.780;2023-04-10T03:26:25;102505.41;;;8.97;61.93
57827;BME280;43656;57.746;11.780;2023-04-10T03:28:50;102506.88;;;8.91;61.52
57827;BME280;43656;57.746;11.780;2023-04-10T03:31:16;102494.16;;;8.84;61.23
57827;BME280;43656;57.746;11.780;2023-04-10T03:33:41;102479.22;;;8.72;61.59
57827;BME280;43656;57.746;11.780;2023-04-10T03:36:07;102486.53;;;8.79;61.26
57827;BME280;43656;57.746;11.780;2023-04-10T03:38:32;102494.22;;;8.74;61.00
57827;BME280;43656;57.746;11.780;2023-04-10T03:40:58;102481.22;;;8.69;61.03
57827;BME280;43656;57.746;11.780;2023-04-10T03:43:24;102480.81;;;8.64;61.32
57827;BME280;43656;57.746;11.780;2023-04-10T03:45:50;102479.13;;;8.54;61.25
57827;BME280;43656;57.746;11.780;2023-04-10T03:48:16;102459.53;;;8.43;60.79
57827;BME280;43656;57.746;11.780;2023-04-10T03:50:42;102467.41;;;8.55;60.50
57827;BME280;43656;57.746;11.780;2023-04-10T03:53:08;102461.22;;;8.44;61.17
57827;BME280;43656;57.746;11.780;2023-04-10T03:55:33;102444.84;;;8.28;60.62
57827;BME280;43656;57.746;11.780;2023-04-10T03:57:59;102467.25;;;8.37;60.49
57827;BME280;43656;57.746;11.780;2023-04-10T04:00:25;102461.63;;;8.30;61.07
57827;BME280;43656;57.746;11.780;2023-04-10T04:02:51;102452.91;;;8.28;60.54
57827;BME280;43656;57.746;11.780;2023-04-10T04:05:18;102452.47;;;8.23;60.52
57827;BME280;43656;57.746;11.780;2023-04-10T04:07:44;102449.38;;;8.18;60.37
57827;BME280;43656;57.746;11.780;2023-04-10T04:10:09;102441.63;;;8.15;60.94
57827;BME280;43656;57.746;11.780;2023-04-10T04:12:35;102439.63;;;8.17;60.21
57827;BME280;43656;57.746;11.780;2023-04-10T04:15:00;102439.78;;;8.06;60.84
57827;BME280;43656;57.746;11.780;2023-04-10T04:17:25;102441.19;;;8.10;60.66
57827;BME280;43656;57.746;11.780;2023-04-10T04:19:51;102429.06;;;8.06;60.75
57827;BME280;43656;57.746;11.780;2023-04-10T04:22:16;102428.63;;;8.10;60.51
57827;BME280;43656;57.746;11.780;2023-04-10T04:24:42;102421.03;;;8.15;60.04
57827;BME280;43656;57.746;11.780;2023-04-10T04:27:07;102428.63;;;8.20;59.77
57827;BME280;43656;57.746;11.780;2023-04-10T04:29:32;102432.69;;;8.34;59.07
57827;BME280;43656;57.746;11.780;2023-04-10T04:31:58;102410.63;;;8.59;57.78
57827;BME280;43656;57.746;11.780;2023-04-10T04:34:23;102440.84;;;8.99;56.54
57827;BME280;43656;57.746;11.780;2023-04-10T04:36:49;102431.16;;;9.33;55.93
57827;BME280;43656;57.746;11.780;2023-04-10T04:39:14;102424.03;;;9.42;55.04
57827;BME280;43656;57.746;11.780;2023-04-10T04:41:40;102429.44;;;9.78;53.89
57827;BME280;43656;57.746;11.780;2023-04-10T04:44:05;102428.19;;;10.08;52.73
57827;BME280;43656;57.746;11.780;2023-04-10T04:46:31;102426.31;;;10.26;52.79
57827;BME280;43656;57.746;11.780;2023-04-10T04:48:56;102418.75;;;10.48;51.76
57827;BME280;43656;57.746;11.780;2023-04-10T04:51:22;102423.00;;;10.58;50.83
57827;BME280;43656;57.746;11.780;2023-04-10T04:53:47;102413.59;;;10.63;50.78
57827;BME280;43656;57.746;11.780;2023-04-10T04:56:12;102422.69;;;10.96;50.02
57827;BME280;43656;57.746;11.780;2023-04-10T04:58:38;102423.81;;;11.19;49.09
57827;BME280;43656;57.746;11.780;2023-04-10T05:01:04;102429.09;;;11.53;48.62
57827;BME280;43656;57.746;11.780;2023-04-10T05:03:29;102434.34;;;11.63;48.10
57827;BME280;43656;57.746;11.780;2023-04-10T05:05:56;102428.63;;;11.83;47.39
57827;BME280;43656;57.746;11.780;2023-04-10T05:08:21;102431.38;;;12.07;46.85
57827;BME280;43656;57.746;11.780;2023-04-10T05:10:47;102437.53;;;11.75;47.25
57827;BME280;43656;57.746;11.780;2023-04-10T05:13:12;102442.50;;;11.21;48.41
57827;BME280;43656;57.746;11.780;2023-04-10T05:15:39;102441.13;;;11.17;48.64
57827;BME280;43656;57.746;11.780;2023-04-10T05:18:05;102437.09;;;11.21;48.50
57827;BME280;43656;57.746;11.780;2023-04-10T05:20:33;102425.50;;;11.28;47.95
57827;BME280;43656;57.746;11.780;2023-04-10T05:22:58;102433.31;;;11.56;47.09
57827;BME280;43656;57.746;11.780;2023-04-10T05:25:24;102424.03;;;11.50;47.42
57827;BME280;43656;57.746;11.780;2023-04-10T05:27:50;102429.84;;;11.21;47.50
57827;BME280;43656;57.746;11.780;2023-04-10T05:30:15;102439.09;;;11.19;47.97
57827;BME280;43656;57.746;11.780;2023-04-10T05:32:40;102424.53;;;11.46;46.74
57827;BME280;43656;57.746;11.780;2023-04-10T05:35:06;102425.91;;;11.58;46.83
57827;BME280;43656;57.746;11.780;2023-04-10T05:37:32;102431.63;;;11.47;46.48
57827;BME280;43656;57.746;11.780;2023-04-10T05:39:58;102409.22;;;10.62;48.22
57827;BME280;43656;57.746;11.780;2023-04-10T05:42:23;102420.84;;;10.36;49.72
57827;BME280;43656;57.746;11.780;2023-04-10T05:44:49;102414.88;;;10.24;50.40
57827;BME280;43656;57.746;11.780;2023-04-10T05:47:15;102414.75;;;10.08;50.65
57827;BME280;43656;57.746;11.780;2023-04-10T05:49:40;102415.84;;;9.79;50.92
57827;BME280;43656;57.746;11.780;2023-04-10T05:52:05;102403.63;;;9.85;50.92
57827;BME280;43656;57.746;11.780;2023-04-10T05:54:31;102402.78;;;9.84;50.59
57827;BME280;43656;57.746;11.780;2023-04-10T05:56:56;102400.00;;;9.94;50.03
57827;BME280;43656;57.746;11.780;2023-04-10T05:59:22;102399.00;;;9.95;50.45
57827;BME280;43656;57.746;11.780;2023-04-10T06:01:47;102397.03;;;10.23;49.85
57827;BME280;43656;57.746;11.780;2023-04-10T06:04:13;102401.88;;;10.38;49.58
57827;BME280;43656;57.746;11.780;2023-04-10T06:06:39;102384.88;;;10.37;49.38
57827;BME280;43656;57.746;11.780;2023-04-10T06:09:05;102390.44;;;10.18;49.95
57827;BME280;43656;57.746;11.780;2023-04-10T06:11:31;102365.94;;;10.03;50.29
57827;BME280;43656;57.746;11.780;2023-04-10T06:13:56;102385.84;;;10.62;49.37
57827;BME280;43656;57.746;11.780;2023-04-10T06:16:21;102385.09;;;10.78;49.11
57827;BME280;43656;57.746;11.780;2023-04-10T06:18:47;102387.94;;;10.76;48.60
57827;BME280;43656;57.746;11.780;2023-04-10T06:21:12;102387.34;;;10.99;48.06
57827;BME280;43656;57.746;11.780;2023-04-10T06:23:38;102385.53;;;10.99;47.93
57827;BME280;43656;57.746;11.780;2023-04-10T06:26:04;102386.03;;;11.11;48.14
57827;BME280;43656;57.746;11.780;2023-04-10T06:28:29;102386.75;;;11.21;47.60
57827;BME280;43656;57.746;11.780;2023-04-10T06:30:55;102385.41;;;11.25;47.48
57827;BME280;43656;57.746;11.780;2023-04-10T06:33:21;102390.53;;;11.53;47.50
57827;BME280;43656;57.746;11.780;2023-04-10T06:35:48;102384.28;;;11.61;47.24
57827;BME280;43656;57.746;11.780;2023-04-10T06:38:15;102391.34;;;11.62;47.19
57827;BME280;43656;57.746;11.780;2023-04-10T06:40:41;102386.00;;;11.70;46.97
57827;BME280;43656;57.746;11.780;2023-04-10T06:43:06;102381.41;;;11.79;46.82
57827;BME280;43656;57.746;11.780;2023-04-10T06:45:32;102383.81;;;11.90;46.31
57827;BME280;43656;57.746;11.780;2023-04-10T06:47:57;102384.16;;;11.95;46.27
57827;BME280;43656;57.746;11.780;2023-04-10T06:50:22;102382.47;;;12.10;46.21
57827;BME280;43656;57.746;11.780;2023-04-10T06:52:48;102384.94;;;12.28;45.79
57827;BME280;43656;57.746;11.780;2023-04-10T06:55:13;102360.50;;;12.30;45.58
57827;BME280;43656;57.746;11.780;2023-04-10T06:57:39;102362.81;;;12.41;45.39
57827;BME280;43656;57.746;11.780;2023-04-10T07:00:07;102365.16;;;12.52;44.95
57827;BME280;43656;57.746;11.780;2023-04-10T07:02:33;102367.75;;;12.77;44.79
57827;BME280;43656;57.746;11.780;2023-04-10T07:04:58;102363.66;;;12.89;44.35
57827;BME280;43656;57.746;11.780;2023-04-10T07:07:24;102370.25;;;12.86;44.34
57827;BME280;43656;57.746;11.780;2023-04-10T07:09:49;102365.69;;;12.87;44.33
57827;BME280;43656;57.746;11.780;2023-04-10T07:12:15;102367.94;;;12.75;44.18
57827;BME280;43656;57.746;11.780;2023-04-10T07:14:40;102363.75;;;12.73;43.73
57827;BME280;43656;57.746;11.780;2023-04-10T07:17:06;102366.44;;;12.73;43.93
57827;BME280;43656;57.746;11.780;2023-04-10T07:19:32;102353.09;;;12.71;43.58
57827;BME280;43656;57.746;11.780;2023-04-10T07:21:58;102360.19;;;12.72;43.11
57827;BME280;43656;57.746;11.780;2023-04-10T07:24:23;102343.03;;;12.88;42.52
57827;BME280;43656;57.746;11.780;2023-04-10T07:26:49;102351.31;;;13.17;42.48
57827;BME280;43656;57.746;11.780;2023-04-10T07:29:14;102346.03;;;13.32;42.33
57827;BME280;43656;57.746;11.780;2023-04-10T07:31:40;102350.19;;;13.43;42.27
57827;BME280;43656;57.746;11.780;2023-04-10T07:34:06;102341.44;;;13.41;41.51
57827;BME280;43656;57.746;11.780;2023-04-10T07:36:32;102347.06;;;13.31;41.55
57827;BME280;43656;57.746;11.780;2023-04-10T07:38:57;102336.44;;;13.30;40.98
57827;BME280;43656;57.746;11.780;2023-04-10T07:41:23;102350.97;;;13.52;40.91
57827;BME280;43656;57.746;11.780;2023-04-10T07:43:48;102335.03;;;13.57;40.49
57827;BME280;43656;57.746;11.780;2023-04-10T07:46:15;102346.31;;;13.60;40.54
57827;BME280;43656;57.746;11.780;2023-04-10T07:48:42;102344.63;;;13.45;40.17
57827;BME280;43656;57.746;11.780;2023-04-10T07:51:08;102339.78;;;13.32;40.05
57827;BME280;43656;57.746;11.780;2023-04-10T07:53:34;102331.38;;;13.50;39.97
57827;BME280;43656;57.746;11.780;2023-04-10T07:56:01;102334.25;;;13.71;39.65
57827;BME280;43656;57.746;11.780;2023-04-10T07:58:26;102332.31;;;13.80;39.56
57827;BME280;43656;57.746;11.780;2023-04-10T08:00:51;102327.63;;;13.74;39.82
57827;BME280;43656;57.746;11.780;2023-04-10T08:03:17;102327.94;;;13.56;39.76
57827;BME280;43656;57.746;11.780;2023-04-10T08:05:42;102297.63;;;13.46;39.71
57827;BME280;43656;57.746;11.780;2023-04-10T08:08:08;102302.56;;;13.57;39.66
57827;BME280;43656;57.746;11.780;2023-04-10T08:10:35;102324.84;;;13.82;39.68
57827;BME280;43656;57.746;11.780;2023-04-10T08:13:02;102324.50;;;13.85;39.65
57827;BME280;43656;57.746;11.780;2023-04-10T08:15:27;102313.75;;;13.92;39.62
57827;BME280;43656;57.746;11.780;2023-04-10T08:17:53;102308.09;;;14.01;39.40
57827;BME280;43656;57.746;11.780;2023-04-10T08:20:18;102310.66;;;13.80;39.40
57827;BME280;43656;57.746;11.780;2023-04-10T08:22:43;102311.16;;;13.98;39.14
57827;BME280;43656;57.746;11.780;2023-04-10T08:25:09;102303.78;;;13.92;39.41
57827;BME280;43656;57.746;11.780;2023-04-10T08:27:36;102294.16;;;13.90;39.24
57827;BME280;43656;57.746;11.780;2023-04-10T08:30:01;102305.84;;;14.20;38.86
57827;BME280;43656;57.746;11.780;2023-04-10T08:32:27;102301.13;;;14.51;38.69
57827;BME280;43656;57.746;11.780;2023-04-10T08:34:53;102303.31;;;14.63;38.53
57827;BME280;43656;57.746;11.780;2023-04-10T08:37:18;102296.91;;;14.64;38.53
57827;BME280;43656;57.746;11.780;2023-04-10T08:39:45;102305.38;;;14.75;38.58
57827;BME280;43656;57.746;11.780;2023-04-10T08:42:10;102292.78;;;14.68;38.96
57827;BME280;43656;57.746;11.780;2023-04-10T08:44:36;102267.09;;;14.64;38.71
57827;BME280;43656;57.746;11.780;2023-04-10T08:47:02;102291.63;;;14.77;39.01
57827;BME280;43656;57.746;11.780;2023-04-10T08:49:58;102291.16;;;14.73;39.11
57827;BME280;43656;57.746;11.780;2023-04-10T08:52:28;102290.78;;;14.76;39.04
57827;BME280;43656;57.746;11.780;2023-04-10T08:54:56;102283.38;;;14.85;38.68
57827;BME280;43656;57.746;11.780;2023-04-10T08:57:23;102287.59;;;14.88;39.05
57827;BME280;43656;57.746;11.780;2023-04-10T08:59:51;102282.34;;;14.86;38.69
57827;BME280;43656;57.746;11.780;2023-04-10T09:02:17;102284.03;;;14.87;38.60
57827;BME280;43656;57.746;11.780;2023-04-10T09:04:52;102263.69;;;14.76;38.90
57827;BME280;43656;57.746;11.780;2023-04-10T09:07:19;102278.09;;;14.77;38.83
57827;BME280;43656;57.746;11.780;2023-04-10T09:09:45;102271.31;;;14.88;38.82
57827;BME280;43656;57.746;11.780;2023-04-10T09:12:12;102265.69;;;14.89;39.24
57827;BME280;43656;57.746;11.780;2023-04-10T09:14:39;102274.88;;;15.10;38.67
57827;BME280;43656;57.746;11.780;2023-04-10T09:19:41;102259.25;;;15.12;38.88
57827;BME280;43656;57.746;11.780;2023-04-10T09:22:07;102232.59;;;14.72;39.07
57827;BME280;43656;57.746;11.780;2023-04-10T09:24:37;102257.31;;;15.06;38.53
57827;BME280;43656;57.746;11.780;2023-04-10T09:27:03;102251.59;;;15.15;38.78
57827;BME280;43656;57.746;11.780;2023-04-10T09:29:47;102239.44;;;14.90;38.50
57827;BME280;43656;57.746;11.780;2023-04-10T09:32:34;102240.56;;;15.17;38.25
57827;BME280;43656;57.746;11.780;2023-04-10T09:35:00;102241.94;;;15.13;38.50
57827;BME280;43656;57.746;11.780;2023-04-10T09:37:31;102246.22;;;15.22;37.94
57827;BME280;43656;57.746;11.780;2023-04-10T09:39:57;102239.06;;;15.14;38.43
57827;BME280;43656;57.746;11.780;2023-04-10T09:42:34;102244.41;;;15.29;37.85
57827;BME280;43656;57.746;11.780;2023-04-10T09:45:01;102236.25;;;15.29;38.03
57827;BME280;43656;57.746;11.780;2023-04-10T09:47:27;102233.00;;;15.34;37.69
57827;BME280;43656;57.746;11.780;2023-04-10T09:49:55;102222.97;;;15.34;37.76
57827;BME280;43656;57.746;11.780;2023-04-10T09:52:30;102218.16;;;15.36;37.69
57827;BME280;43656;57.746;11.780;2023-04-10T09:55:06;102214.34;;;15.52;37.29
57827;BME280;43656;57.746;11.780;2023-04-10T09:57:34;102214.34;;;15.52;37.74
57827;BME280;43656;57.746;11.780;2023-04-10T10:00:02;102215.16;;;15.52;38.00
57827;BME280;43656;57.746;11.780;2023-04-10T10:02:35;102192.44;;;15.54;37.47
57827;BME280;43656;57.746;11.780;2023-04-10T10:05:03;102205.56;;;15.78;37.67
57827;BME280;43656;57.746;11.780;2023-04-10T10:07:30;102186.84;;;15.62;37.47
57827;BME280;43656;57.746;11.780;2023-04-10T10:09:57;102182.66;;;15.59;37.38
57827;BME280;43656;57.746;11.780;2023-04-10T10:12:34;102151.50;;;15.48;36.95
57827;BME280;43656;57.746;11.780;2023-04-10T10:17:54;102174.34;;;15.61;36.81
57827;BME280;43656;57.746;11.780;2023-04-10T10:20:25;102167.63;;;15.57;36.89
57827;BME280;43656;57.746;11.780;2023-04-10T10:22:51;102166.09;;;15.76;37.07
57827;BME280;43656;57.746;11.780;2023-04-10T10:25:18;102157.72;;;15.70;37.13
57827;BME280;43656;57.746;11.780;2023-04-10T10:27:45;102145.09;;;15.63;37.14
57827;BME280;43656;57.746;11.780;2023-04-10T10:30:15;102129.25;;;15.60;37.18
57827;BME280;43656;57.746;11.780;2023-04-10T10:32:40;102158.81;;;15.76;37.55
57827;BME280;43656;57.746;11.780;2023-04-10T10:35:06;102154.88;;;15.85;37.22
57827;BME280;43656;57.746;11.780;2023-04-10T10:37:33;102140.03;;;15.81;37.32
57827;BME280;43656;57.746;11.780;2023-04-10T10:40:19;102123.94;;;15.73;37.12
57827;BME280;43656;57.746;11.780;2023-04-10T10:45:40;102121.69;;;15.83;36.99
57827;BME280;43656;57.746;11.780;2023-04-10T10:48:06;102124.25;;;15.98;37.11
57827;BME280;43656;57.746;11.780;2023-04-10T10:50:57;102120.53;;;16.12;37.03
57827;BME280;43656;57.746;11.780;2023-04-10T10:53:39;102109.53;;;15.79;36.52
57827;BME280;43656;57.746;11.780;2023-04-10T10:58:52;102098.78;;;16.12;37.04
57827;BME280;43656;57.746;11.780;2023-04-10T11:01:19;102072.69;;;16.05;36.70
57827;BME280;43656;57.746;11.780;2023-04-10T11:03:47;102079.59;;;16.14;37.01
57827;BME280;43656;57.746;11.780;2023-04-10T11:06:19;102086.91;;;16.13;37.03
57827;BME280;43656;57.746;11.780;2023-04-10T11:08:49;102080.69;;;16.26;36.70
57827;BME280;43656;57.746;11.780;2023-04-10T11:11:23;102079.56;;;16.01;37.19
57827;BME280;43656;57.746;11.780;2023-04-10T11:16:21;102062.59;;;15.85;37.34
57827;BME280;43656;57.746;11.780;2023-04-10T11:21:16;102060.19;;;16.17;36.84
57827;BME280;43656;57.746;11.780;2023-04-10T11:26:38;102059.38;;;16.30;36.91
57827;BME280;43656;57.746;11.780;2023-04-10T11:31:37;102046.00;;;16.61;36.66
57827;BME280;43656;57.746;11.780;2023-04-10T11:34:07;102038.69;;;16.62;36.48
57827;BME280;43656;57.746;11.780;2023-04-10T11:36:34;102044.34;;;16.54;36.42
57827;BME280;43656;57.746;11.780;2023-04-10T11:39:07;102031.00;;;16.79;36.30
57827;BME280;43656;57.746;11.780;2023-04-10T11:41:43;102017.19;;;16.87;36.19
57827;BME280;43656;57.746;11.780;2023-04-10T11:44:12;102022.59;;;17.07;36.11
57827;BME280;43656;57.746;11.780;2023-04-10T11:46:39;102011.72;;;17.07;36.08
57827;BME280;43656;57.746;11.780;2023-04-10T11:49:07;102004.19;;;17.02;36.08
57827;BME280;43656;57.746;11.780;2023-04-10T11:51:34;102011.31;;;17.03;36.17
57827;BME280;43656;57.746;11.780;2023-04-10T11:54:11;102001.66;;;17.07;35.72
57827;BME280;43656;57.746;11.780;2023-04-10T11:56:38;101996.41;;;17.19;35.92
57827;BME280;43656;57.746;11.780;2023-04-10T11:59:05;101991.94;;;17.38;35.63
57827;BME280;43656;57.746;11.780;2023-04-10T12:01:43;101983.59;;;17.33;35.75
57827;BME280;43656;57.746;11.780;2023-04-10T12:04:16;101988.59;;;17.43;35.44
57827;BME280;43656;57.746;11.780;2023-04-10T12:06:52;101971.97;;;17.57;35.07
57827;BME280;43656;57.746;11.780;2023-04-10T12:09:20;101979.63;;;17.74;35.29
57827;BME280;43656;57.746;11.780;2023-04-10T12:14:21;101969.06;;;17.91;35.43
57827;BME280;43656;57.746;11.780;2023-04-10T12:16:48;101962.66;;;18.10;35.01
57827;BME280;43656;57.746;11.780;2023-04-10T12:19:14;101952.59;;;18.11;35.37
57827;BME280;43656;57.746;11.780;2023-04-10T12:21:45;101954.56;;;18.28;35.43
57827;BME280;43656;57.746;11.780;2023-04-10T12:24:12;101958.78;;;18.24;35.47
57827;BME280;43656;57.746;11.780;2023-04-10T12:26:57;101955.72;;;18.14;35.44
57827;BME280;43656;57.746;11.780;2023-04-10T12:29:25;101936.94;;;18.06;35.32
57827;BME280;43656;57.746;11.780;2023-04-10T12:31:51;101953.28;;;18.06;35.52
57827;BME280;43656;57.746;11.780;2023-04-10T12:34:17;101942.53;;;17.86;35.72
57827;BME280;43656;57.746;11.780;2023-04-10T12:36:51;101938.81;;;18.05;35.78
57827;BME280;43656;57.746;11.780;2023-04-10T12:39:21;101916.78;;;17.82;35.88
57827;BME280;43656;57.746;11.780;2023-04-10T12:41:47;101936.78;;;17.94;35.33
57827;BME280;43656;57.746;11.780;2023-04-10T12:44:13;101921.25;;;18.01;35.63
57827;BME280;43656;57.746;11.780;2023-04-10T12:46:39;101922.97;;;17.96;35.66
57827;BME280;43656;57.746;11.780;2023-04-10T12:54:11;101913.03;;;18.08;35.30
57827;BME280;43656;57.746;11.780;2023-04-10T12:56:43;101911.53;;;18.12;34.97
57827;BME280;43656;57.746;11.780;2023-04-10T12:59:08;101893.59;;;17.98;35.09
57827;BME280;43656;57.746;11.780;2023-04-10T13:01:37;101896.22;;;18.11;34.93
57827;BME280;43656;57.746;11.780;2023-04-10T13:04:02;101890.63;;;18.06;34.95
57827;BME280;43656;57.746;11.780;2023-04-10T13:06:28;101891.84;;;18.10;34.70
57827;BME280;43656;57.746;11.780;2023-04-10T13:08:53;101886.97;;;18.19;34.47
57827;BME280;43656;57.746;11.780;2023-04-10T13:11:20;101889.25;;;18.22;34.37
57827;BME280;43656;57.746;11.780;2023-04-10T13:13:47;101888.88;;;18.37;34.16
57827;BME280;43656;57.746;11.780;2023-04-10T13:16:12;101871.31;;;18.07;34.06
57827;BME280;43656;57.746;11.780;2023-04-10T13:18:38;101874.50;;;18.29;34.32
57827;BME280;43656;57.746;11.780;2023-04-10T13:21:03;101869.41;;;18.33;34.10
57827;BME280;43656;57.746;11.780;2023-04-10T13:23:29;101856.41;;;18.35;33.98
57827;BME280;43656;57.746;11.780;2023-04-10T13:25:55;101846.63;;;18.27;34.08